createdAt,value
2019-04-28T00:01:14.099Z,11.7
2019-04-28T00:06:21.601Z,11.6
2019-04-28T00:11:27.035Z,11.6
2019-04-28T00:16:32.620Z,11.5
2019-04-28T00:21:38.046Z,11.5
2019-04-28T00:26:44.947Z,11.5
2019-04-28T00:31:51.877Z,11.4
2019-04-28T00:36:56.492Z,11.4
2019-04-28T00:42:04.341Z,11.4
2019-04-28T00:47:11.539Z,11.3
2019-04-28T00:52:16.990Z,11.3
2019-04-28T00:57:21.871Z,11.3
2019-04-28T01:07:55.888Z,11.4
2019-04-28T01:13:03.273Z,11.4
2019-04-28T01:18:10.928Z,11.4
2019-04-28T01:23:16.098Z,11.3
2019-04-28T01:28:22.479Z,11.3
2019-04-28T01:33:29.304Z,11.2
2019-04-28T01:38:34.957Z,11.1
2019-04-28T01:43:42.208Z,11.1
2019-04-28T01:48:47.066Z,11.1
2019-04-28T01:53:53.555Z,11
2019-04-28T01:59:00.790Z,11
2019-04-28T02:04:05.642Z,11
2019-04-28T02:09:11.358Z,10.9
2019-04-28T02:14:16.500Z,10.9
2019-04-28T02:19:23.448Z,10.9
2019-04-28T02:24:30.455Z,10.8
2019-04-28T02:29:35.650Z,10.8
2019-04-28T02:34:42.442Z,10.8
2019-04-28T02:39:49.819Z,10.8
2019-04-28T02:44:55.928Z,10.7
2019-04-28T02:50:03.934Z,10.7
2019-04-28T02:55:11.894Z,10.7
2019-04-28T03:00:17.025Z,10.7
2019-04-28T03:05:24.657Z,10.7
2019-04-28T03:10:32.382Z,10.8
2019-04-28T03:15:37.797Z,10.9
2019-04-28T03:20:46.186Z,10.8
2019-04-28T03:25:51.854Z,10.8
2019-04-28T03:30:57.260Z,10.8
2019-04-28T03:36:43.686Z,10.7
2019-04-28T03:41:51.071Z,10.7
2019-04-28T03:46:56.211Z,10.6
2019-04-28T03:52:06.312Z,10.6
2019-04-28T03:57:14.462Z,10.6
2019-04-28T04:02:24.471Z,10.5
2019-04-28T04:07:32.200Z,10.5
2019-04-28T04:12:37.617Z,10.5
2019-04-28T04:17:45.707Z,10.5
2019-04-28T04:22:52.485Z,10.4
2019-04-28T04:28:04.057Z,10.4
2019-04-28T04:33:12.036Z,10.4
2019-04-28T04:38:17.169Z,10.4
2019-04-28T04:43:24.741Z,10.3
2019-04-28T04:48:31.687Z,10.3
2019-04-28T04:53:37.116Z,10.3
2019-04-28T04:58:44.611Z,10.3
2019-04-28T05:03:50.952Z,10.3
2019-04-28T05:08:55.809Z,10.3
2019-04-28T05:14:01.220Z,10.3
2019-04-28T05:19:05.790Z,10.3
2019-04-28T05:24:19.592Z,10.4
2019-04-28T05:29:30.413Z,10.4
2019-04-28T05:34:34.946Z,10.4
2019-04-28T05:39:53.522Z,10.4
2019-04-28T05:45:00.523Z,10.4
2019-04-28T05:50:05.935Z,10.4
2019-04-28T05:55:11.346Z,10.4
2019-04-28T06:00:16.759Z,10.4
2019-04-28T06:05:24.279Z,10.4
2019-04-28T06:10:30.525Z,10.4
2019-04-28T06:15:35.709Z,10.5
2019-04-28T06:20:41.901Z,10.5
2019-04-28T06:25:46.765Z,10.5
2019-04-28T06:30:52.175Z,10.5
2019-04-28T06:35:56.757Z,10.5
2019-04-28T06:41:01.889Z,10.5
2019-04-28T06:46:07.025Z,10.5
2019-04-28T06:51:11.599Z,10.5
2019-04-28T06:56:16.447Z,10.5
2019-04-28T07:01:21.883Z,10.5
2019-04-28T07:06:26.731Z,10.5
2019-04-28T07:11:31.035Z,10.5
2019-04-28T07:16:36.461Z,10.5
2019-04-28T07:21:41.871Z,10.5
2019-04-28T07:26:46.729Z,10.5
2019-04-28T07:31:51.889Z,10.5
2019-04-28T07:36:57.040Z,10.6
2019-04-28T07:42:02.461Z,10.6
2019-04-28T07:47:07.601Z,10.7
2019-04-28T07:52:12.729Z,10.7
2019-04-28T07:57:17.865Z,10.8
2019-04-28T08:02:23.553Z,10.8
2019-04-28T08:07:28.960Z,10.8
2019-04-28T08:12:34.387Z,10.9
2019-04-28T08:17:39.517Z,10.9
2019-04-28T08:22:44.928Z,10.9
2019-04-28T08:27:50.621Z,10.9
2019-04-28T08:32:55.756Z,11
2019-04-28T08:38:00.610Z,11
2019-04-28T08:43:06.300Z,11
2019-04-28T08:48:11.443Z,11.1
2019-04-28T08:53:16.856Z,11.1
2019-04-28T08:58:21.986Z,11.1
2019-04-28T09:03:26.847Z,11.1
2019-04-28T09:08:32.538Z,11.1
2019-04-28T09:13:37.394Z,11.1
2019-04-28T09:18:43.092Z,11.1
2019-04-28T09:23:48.233Z,11.1
2019-04-28T09:28:53.372Z,11.1
2019-04-28T09:33:58.512Z,11.1
2019-04-28T09:39:03.370Z,11.1
2019-04-28T09:44:08.508Z,11.1
2019-04-28T09:49:13.639Z,11.1
2019-04-28T09:54:19.073Z,11.2
2019-04-28T09:59:23.967Z,11.2
2019-04-28T10:04:42.499Z,11.3
2019-04-28T10:09:47.899Z,11.4
2019-04-28T10:14:52.495Z,11.5
2019-04-28T10:19:58.195Z,11.5
2019-04-28T10:25:03.886Z,11.5
2019-04-28T10:30:09.294Z,11.5
2019-04-28T10:35:14.997Z,11.6
2019-04-28T10:40:20.684Z,11.6
2019-04-28T10:45:26.108Z,11.7
2019-04-28T10:50:31.801Z,11.8
2019-04-28T10:55:36.942Z,11.8
2019-04-28T11:00:42.086Z,12
2019-04-28T11:05:47.508Z,12.1
2019-04-28T11:10:52.090Z,12.2
2019-04-28T11:15:57.510Z,12.3
2019-04-28T11:21:02.372Z,12.5
2019-04-28T11:26:07.789Z,12.6
2019-04-28T11:31:12.373Z,12.8
2019-04-28T11:36:17.519Z,12.9
2019-04-28T11:41:22.669Z,13.1
2019-04-28T11:46:27.809Z,13.2
2019-04-28T11:51:32.670Z,13.3
2019-04-28T11:56:42.692Z,13.5
2019-04-28T12:01:47.557Z,13.6
2019-04-28T12:06:52.417Z,13.8
2019-04-28T12:11:57.560Z,13.9
2019-04-28T12:17:02.988Z,14.1
2019-04-28T12:22:08.445Z,14.3
2019-04-28T12:27:13.574Z,14.5
2019-04-28T12:32:19.003Z,14.7
2019-04-28T12:37:24.712Z,14.8
2019-04-28T12:42:29.587Z,15
2019-04-28T12:47:34.742Z,15.2
2019-04-28T12:52:40.171Z,15.4
2019-04-28T12:57:45.885Z,15.6
2019-04-28T13:02:50.753Z,15.8
2019-04-28T13:07:56.194Z,16.1
2019-04-28T13:13:01.351Z,16.3
2019-04-28T13:18:06.513Z,16.5
2019-04-28T13:23:11.168Z,16.7
2019-04-28T13:28:16.333Z,17
2019-04-28T13:33:21.218Z,17.2
2019-04-28T13:38:26.662Z,17.5
2019-04-28T13:43:31.551Z,17.7
2019-04-28T13:48:37.305Z,17.9
2019-04-28T13:53:42.444Z,18.1
2019-04-28T13:58:47.610Z,18.2
2019-04-28T14:03:53.356Z,18.3
2019-04-28T14:08:58.959Z,18.4
2019-04-28T14:14:03.792Z,18.5
2019-04-28T14:19:09.246Z,18.6
2019-04-28T14:24:14.141Z,18.7
2019-04-28T14:29:19.374Z,18.8
2019-04-28T14:34:24.837Z,18.9
2019-04-28T14:39:30.281Z,19
2019-04-28T14:44:36.060Z,19.1
2019-04-28T14:49:41.512Z,19.2
2019-04-28T14:54:47.258Z,19.3
2019-04-28T14:59:52.449Z,19.4
2019-04-28T15:05:29.781Z,19.4
2019-04-28T15:10:35.255Z,19.4
2019-04-28T15:15:40.702Z,19.4
2019-04-28T15:20:45.927Z,19.4
2019-04-28T15:25:51.336Z,19.4
2019-04-28T15:30:56.253Z,19.3
2019-04-28T15:36:01.142Z,19.3
2019-04-28T15:41:20.468Z,19.2
2019-04-28T15:46:26.820Z,19.1
2019-04-28T15:51:31.703Z,19
2019-04-28T15:56:36.863Z,18.9
2019-04-28T16:01:42.028Z,18.9
2019-04-28T16:06:47.744Z,18.8
2019-04-28T16:11:53.174Z,18.7
2019-04-28T16:16:58.337Z,18.6
2019-04-28T16:22:03.776Z,18.5
2019-04-28T16:27:09.215Z,18.4
2019-04-28T16:32:14.653Z,18.3
2019-04-28T16:37:20.091Z,18.3
2019-04-28T16:42:25.541Z,18.2
2019-04-28T16:47:30.984Z,18.1
2019-04-28T16:52:35.586Z,18
2019-04-28T16:57:40.189Z,17.9
2019-04-28T17:02:45.078Z,17.9
2019-04-28T17:07:54.230Z,17.8
2019-04-28T17:12:59.102Z,17.7
2019-04-28T17:18:04.257Z,17.6
2019-04-28T17:23:09.419Z,17.6
2019-04-28T17:28:14.904Z,17.5
2019-04-28T17:33:20.067Z,17.4
2019-04-28T17:38:25.226Z,17.4
2019-04-28T17:43:30.371Z,17.3
2019-04-28T17:48:35.520Z,17.2
2019-04-28T17:53:40.677Z,17.1
2019-04-28T17:58:45.829Z,16.9
2019-04-28T18:03:50.702Z,16.7
2019-04-28T18:08:55.860Z,16.6
2019-04-28T18:14:03.805Z,16.4
2019-04-28T18:19:09.283Z,16.2
2019-04-28T18:24:14.432Z,16
2019-04-28T18:29:19.299Z,15.9
2019-04-28T18:34:24.720Z,15.7
2019-04-28T18:39:29.867Z,15.5
2019-04-28T18:44:35.012Z,15.3
2019-04-28T18:49:40.154Z,15.1
2019-04-28T18:54:45.292Z,14.9
2019-04-28T18:59:50.163Z,14.8
2019-04-28T19:04:55.583Z,14.6
2019-04-28T19:10:00.170Z,14.4
2019-04-28T19:15:05.591Z,14.2
2019-04-28T19:20:13.317Z,14
2019-04-28T19:25:18.857Z,13.9
2019-04-28T19:30:24.552Z,13.7
2019-04-28T19:35:28.859Z,13.6
2019-04-28T19:40:34.278Z,13.4
2019-04-28T19:45:39.693Z,13.2
2019-04-28T19:50:44.827Z,13.1
2019-04-28T19:55:49.683Z,12.9
2019-04-28T20:00:55.097Z,12.8
2019-04-28T20:06:00.512Z,12.6
2019-04-28T20:11:05.917Z,12.5
2019-04-28T20:16:11.067Z,12.3
2019-04-28T20:21:15.932Z,12.2
2019-04-28T20:26:21.064Z,12
2019-04-28T20:31:25.640Z,11.9
2019-04-28T20:36:33.511Z,11.8
2019-04-28T20:41:38.937Z,11.7
2019-04-28T20:46:44.059Z,11.6
2019-04-28T20:51:48.353Z,11.5
2019-04-28T20:56:53.486Z,11.4
2019-04-28T21:01:58.617Z,11.3
2019-04-28T21:07:04.018Z,11.2
2019-04-28T21:12:09.452Z,11.1
2019-04-28T21:17:14.657Z,11
2019-04-28T21:22:20.103Z,10.9
2019-04-28T21:27:24.690Z,10.9
2019-04-28T21:32:29.648Z,10.8
2019-04-28T21:37:34.537Z,10.7
2019-04-28T21:42:39.477Z,10.6
2019-04-28T21:47:44.882Z,10.5
2019-04-28T21:52:50.293Z,10.4
2019-04-28T21:57:55.705Z,10.3
2019-04-28T22:03:01.109Z,10.2
2019-04-28T22:08:05.954Z,10.1
2019-04-28T22:13:11.636Z,10
2019-04-28T22:18:17.316Z,9.9
2019-04-28T22:23:22.438Z,9.8
2019-04-28T22:28:27.555Z,9.7
2019-04-28T22:33:32.965Z,9.6
2019-04-28T22:38:38.080Z,9.5
2019-04-28T22:43:43.766Z,9.4
2019-04-28T22:48:48.883Z,9.3
2019-04-28T22:53:54.282Z,9.2
2019-04-28T22:58:59.683Z,9.2
2019-04-28T23:04:04.254Z,9.1
2019-04-28T23:09:09.371Z,9
2019-04-28T23:14:14.494Z,9
2019-04-28T23:19:19.884Z,8.9
2019-04-28T23:24:25.004Z,8.8
2019-04-28T23:29:31.796Z,8.8
2019-04-28T23:34:37.472Z,8.7
2019-04-28T23:39:42.035Z,8.7
2019-04-28T23:44:47.164Z,8.7
2019-04-28T23:49:52.278Z,8.6
2019-04-28T23:54:57.392Z,8.6
